Saint Simons Island, Georgia
Current Conditions -  °F | °C
As of 4:53 AM on Sunday 25 Jan 2015 (Local Time) from KSSI Reporting Station
Clear Clear  
Wind Chill: 35°   Ceiling: Unl
Heat Index: 41°   Visibility: 10mi
Dew Point: 34°   Wind: 9mph
Humidity: 76%   Direction: 290°WNW
Pressure: 30.02"   Gusts: NA
Location:  31.15°N, 81.38°W
Report Text: KSSI 250953Z AUTO 29008KT 10SM CLR 05/01 A3002 RMK AO2 SLP165 T00500011
Loading
Personal Weather Stations






























Interactive Weather Map New forecast layout! Learn more

10-Day Weather Forecast

Advertisements
Track Severe Weather on mobile